createdAt,value
2022-12-20T00:00:55.724Z,3.98
2022-12-20T00:01:57.619Z,4.01
2022-12-20T00:02:59.461Z,4.01
2022-12-20T00:04:01.350Z,4.01
2022-12-20T00:05:03.192Z,4.02
2022-12-20T00:06:05.085Z,4.00
2022-12-20T00:07:06.879Z,3.95
2022-12-20T00:08:08.690Z,3.89
2022-12-20T00:09:10.540Z,3.88
2022-12-20T00:10:13.008Z,3.87
2022-12-20T00:11:14.823Z,3.87
2022-12-20T00:12:16.592Z,3.88
2022-12-20T00:13:18.393Z,3.89
2022-12-20T00:14:20.227Z,3.91
2022-12-20T00:15:22.050Z,3.94
2022-12-20T00:16:23.882Z,3.95
2022-12-20T00:17:25.689Z,3.97
2022-12-20T00:18:27.496Z,3.98
2022-12-20T00:19:29.338Z,3.99
2022-12-20T00:20:31.152Z,4.01
2022-12-20T00:21:32.968Z,4.01
2022-12-20T00:22:34.755Z,4.01
2022-12-20T00:23:36.571Z,4.00
2022-12-20T00:24:38.422Z,4.02
2022-12-20T00:25:40.257Z,4.03
2022-12-20T00:26:42.051Z,4.02
2022-12-20T00:27:43.858Z,3.99
2022-12-20T00:28:45.648Z,3.97
2022-12-20T00:29:47.497Z,3.98
2022-12-20T00:30:49.625Z,3.97
2022-12-20T00:31:51.691Z,3.96
2022-12-20T00:32:53.499Z,3.97
2022-12-20T00:33:55.298Z,3.95
2022-12-20T00:34:57.138Z,3.96
2022-12-20T00:35:58.947Z,3.95
2022-12-20T00:37:01.050Z,3.95
2022-12-20T00:38:02.871Z,3.94
2022-12-20T00:39:04.649Z,3.94
2022-12-20T00:40:07.135Z,3.92
2022-12-20T00:41:08.959Z,3.91
2022-12-20T00:42:10.760Z,3.90
2022-12-20T00:43:12.557Z,3.88
2022-12-20T00:44:14.352Z,3.90
2022-12-20T00:45:16.187Z,3.90
2022-12-20T00:46:18.211Z,3.90
2022-12-20T00:47:20.061Z,3.87
2022-12-20T00:48:21.939Z,3.86
2022-12-20T00:49:23.719Z,3.85
2022-12-20T00:50:25.562Z,3.82
2022-12-20T00:51:27.387Z,3.82
2022-12-20T00:52:29.173Z,3.83
2022-12-20T00:53:30.979Z,3.83
2022-12-20T00:54:32.781Z,3.85
2022-12-20T00:55:34.637Z,3.86
2022-12-20T00:56:36.712Z,3.84
2022-12-20T00:57:38.513Z,3.85
2022-12-20T00:58:40.329Z,3.86
2022-12-20T00:59:42.130Z,3.87
2022-12-20T01:00:45.253Z,3.86
2022-12-20T01:01:47.935Z,3.86
2022-12-20T01:02:49.991Z,3.86
2022-12-20T01:03:51.834Z,3.86
2022-12-20T01:04:53.595Z,3.86
2022-12-20T01:05:55.452Z,3.84
2022-12-20T01:06:57.269Z,3.85
2022-12-20T01:07:59.069Z,3.84
2022-12-20T01:09:00.873Z,3.84
2022-12-20T01:10:02.675Z,3.84
2022-12-20T01:11:04.539Z,3.85
2022-12-20T01:12:06.436Z,3.84
2022-12-20T01:13:08.230Z,3.85
2022-12-20T01:14:10.057Z,3.86
2022-12-20T01:15:11.853Z,3.83
2022-12-20T01:16:14.125Z,3.82
2022-12-20T01:17:15.925Z,3.81
2022-12-20T01:18:17.738Z,3.80
2022-12-20T01:19:19.556Z,3.80
2022-12-20T01:20:21.358Z,3.80
2022-12-20T01:21:23.225Z,3.79
2022-12-20T01:22:25.009Z,3.80
2022-12-20T01:23:26.828Z,3.81
2022-12-20T01:24:28.638Z,3.81
2022-12-20T01:25:30.433Z,3.80
2022-12-20T01:26:32.380Z,3.78
2022-12-20T01:27:34.285Z,3.79
2022-12-20T01:28:36.098Z,3.77
2022-12-20T01:29:37.893Z,3.77
2022-12-20T01:30:39.800Z,3.78
2022-12-20T01:31:41.693Z,3.78
2022-12-20T01:32:43.548Z,3.80
2022-12-20T01:33:45.347Z,3.82
2022-12-20T01:34:47.151Z,3.83
2022-12-20T01:35:48.948Z,3.83
2022-12-20T01:36:50.907Z,3.82
2022-12-20T01:37:52.714Z,3.82
2022-12-20T01:38:54.518Z,3.82
2022-12-20T01:39:56.320Z,3.81
2022-12-20T01:40:58.228Z,3.81
2022-12-20T01:42:00.109Z,3.79
2022-12-20T01:43:01.890Z,3.79
2022-12-20T01:44:03.694Z,3.79
2022-12-20T01:45:05.503Z,3.76
2022-12-20T01:46:07.664Z,3.72
2022-12-20T01:47:09.479Z,3.73
2022-12-20T01:48:11.268Z,3.74
2022-12-20T01:49:13.085Z,3.74
2022-12-20T01:50:14.879Z,3.77
2022-12-20T01:51:16.681Z,3.79
2022-12-20T01:52:18.543Z,3.82
2022-12-20T01:53:20.355Z,3.84
2022-12-20T01:54:22.187Z,3.85
2022-12-20T01:55:23.979Z,3.84
2022-12-20T01:56:25.917Z,3.86
2022-12-20T01:57:27.779Z,3.86
2022-12-20T01:58:29.665Z,3.87
2022-12-20T01:59:31.406Z,3.87
2022-12-20T02:00:33.306Z,3.87
2022-12-20T02:01:35.277Z,3.86
2022-12-20T02:02:37.229Z,3.86
2022-12-20T02:03:39.092Z,3.86
2022-12-20T02:04:40.925Z,3.83
2022-12-20T02:05:42.714Z,3.80
2022-12-20T02:06:44.607Z,3.80
2022-12-20T02:07:46.466Z,3.77
2022-12-20T02:08:48.283Z,3.75
2022-12-20T02:09:50.114Z,3.74
2022-12-20T02:10:52.058Z,3.72
2022-12-20T02:11:53.863Z,3.70
2022-12-20T02:12:55.715Z,3.70
2022-12-20T02:13:57.720Z,3.70
2022-12-20T02:14:59.531Z,3.70
2022-12-20T02:16:01.321Z,3.71
2022-12-20T02:17:03.256Z,3.72
2022-12-20T02:18:05.182Z,3.71
2022-12-20T02:19:07.005Z,3.71
2022-12-20T02:20:09.412Z,3.70
2022-12-20T02:21:11.208Z,3.70
2022-12-20T02:22:13.009Z,3.67
2022-12-20T02:23:14.871Z,3.65
2022-12-20T02:24:16.676Z,3.65
2022-12-20T02:25:18.513Z,3.65
2022-12-20T02:26:20.417Z,3.64
2022-12-20T02:27:22.222Z,3.64
2022-12-20T02:28:24.083Z,3.65
2022-12-20T02:29:27.692Z,3.64
2022-12-20T02:30:29.707Z,3.67
2022-12-20T02:31:31.546Z,3.69
2022-12-20T02:32:33.313Z,3.70
2022-12-20T02:33:35.160Z,3.71
2022-12-20T02:34:36.970Z,3.71
2022-12-20T02:35:38.823Z,3.71
2022-12-20T02:36:40.620Z,3.70
2022-12-20T02:37:42.439Z,3.71
2022-12-20T02:38:44.296Z,3.69
2022-12-20T02:39:46.096Z,3.67
2022-12-20T02:40:47.900Z,3.67
2022-12-20T02:41:49.699Z,3.68
2022-12-20T02:42:51.660Z,3.69
2022-12-20T02:43:53.519Z,3.69
2022-12-20T02:44:55.427Z,3.70
2022-12-20T02:45:57.304Z,3.70
2022-12-20T02:46:59.255Z,3.70
2022-12-20T02:48:01.044Z,3.70
2022-12-20T02:49:02.872Z,3.70
2022-12-20T02:50:04.790Z,3.70
2022-12-20T02:51:06.588Z,3.71
2022-12-20T02:52:08.398Z,3.72
2022-12-20T02:53:10.205Z,3.73
2022-12-20T02:54:12.159Z,3.75
2022-12-20T02:55:13.971Z,3.75
2022-12-20T02:56:15.871Z,3.73
2022-12-20T02:57:17.691Z,3.73
2022-12-20T02:58:19.482Z,3.74
2022-12-20T02:59:21.349Z,3.73
2022-12-20T03:00:23.310Z,3.72
2022-12-20T03:01:25.292Z,3.68
2022-12-20T03:02:27.378Z,3.62
2022-12-20T03:03:29.442Z,3.57
2022-12-20T03:04:31.280Z,3.54
2022-12-20T03:05:33.096Z,3.50
2022-12-20T03:06:34.911Z,3.45
2022-12-20T03:07:36.703Z,3.44
2022-12-20T03:08:38.523Z,3.44
2022-12-20T03:09:40.367Z,3.45
2022-12-20T03:10:42.331Z,3.48
2022-12-20T03:11:44.084Z,3.50
2022-12-20T03:12:45.886Z,3.46
2022-12-20T03:13:47.681Z,3.46
2022-12-20T03:14:49.558Z,3.45
2022-12-20T03:15:51.592Z,3.42
2022-12-20T03:16:53.523Z,3.41
2022-12-20T03:17:55.397Z,3.41
2022-12-20T03:18:57.189Z,3.35
2022-12-20T03:19:59.009Z,3.31
2022-12-20T03:21:00.908Z,3.30
2022-12-20T03:22:02.721Z,3.30
2022-12-20T03:23:04.517Z,3.31
2022-12-20T03:24:06.306Z,3.33
2022-12-20T03:25:08.164Z,3.35
2022-12-20T03:26:11.179Z,3.39
2022-12-20T03:27:12.976Z,3.43
2022-12-20T03:28:14.786Z,3.44
2022-12-20T03:29:16.598Z,3.45
2022-12-20T03:30:18.437Z,3.46
2022-12-20T03:31:21.375Z,3.45
2022-12-20T03:32:23.235Z,3.47
2022-12-20T03:33:25.041Z,3.47
2022-12-20T03:34:26.845Z,3.46
2022-12-20T03:35:28.692Z,3.48
2022-12-20T03:36:30.573Z,3.47
2022-12-20T03:37:32.697Z,3.45
2022-12-20T03:38:34.498Z,3.42
2022-12-20T03:39:36.295Z,3.42
2022-12-20T03:40:38.135Z,3.44
2022-12-20T03:41:39.943Z,3.44
2022-12-20T03:42:41.740Z,3.44
2022-12-20T03:43:43.552Z,3.44
2022-12-20T03:44:45.374Z,3.41
2022-12-20T03:45:47.198Z,3.40
2022-12-20T03:46:49.223Z,3.41
2022-12-20T03:47:50.981Z,3.41
2022-12-20T03:48:52.787Z,3.41
2022-12-20T03:49:54.576Z,3.43
2022-12-20T03:50:56.419Z,3.43
2022-12-20T03:51:58.215Z,3.42
2022-12-20T03:53:00.048Z,3.39
2022-12-20T03:54:01.821Z,3.35
2022-12-20T03:55:03.635Z,3.31
2022-12-20T03:56:05.579Z,3.27
2022-12-20T03:57:07.397Z,3.23
2022-12-20T03:58:09.189Z,3.21
2022-12-20T03:59:10.983Z,3.20
2022-12-20T04:00:12.795Z,3.14
2022-12-20T04:01:14.691Z,3.05
2022-12-20T04:02:16.683Z,3.00
2022-12-20T04:03:18.653Z,2.99
2022-12-20T04:04:20.472Z,3.01
2022-12-20T04:05:22.279Z,3.00
2022-12-20T04:06:24.377Z,2.94
2022-12-20T04:07:26.133Z,2.89
2022-12-20T04:08:27.957Z,2.89
2022-12-20T04:09:29.750Z,2.91
2022-12-20T04:10:31.677Z,2.94
2022-12-20T04:11:33.518Z,2.98
2022-12-20T04:12:35.349Z,2.98
2022-12-20T04:13:37.150Z,2.96
2022-12-20T04:14:38.936Z,2.98
2022-12-20T04:15:40.755Z,2.99
2022-12-20T04:16:42.755Z,3.02
2022-12-20T04:17:44.949Z,3.05
2022-12-20T04:18:46.737Z,3.04
2022-12-20T04:19:48.538Z,3.03
2022-12-20T04:20:50.357Z,3.03
2022-12-20T04:21:52.181Z,2.98
2022-12-20T04:22:54.004Z,2.96
2022-12-20T04:23:55.794Z,2.99
2022-12-20T04:24:57.598Z,3.03
2022-12-20T04:25:59.426Z,3.05
2022-12-20T04:27:01.547Z,3.09
2022-12-20T04:28:03.369Z,3.13
2022-12-20T04:29:05.178Z,3.14
2022-12-20T04:30:07.363Z,3.15
2022-12-20T04:31:09.216Z,3.17
2022-12-20T04:32:11.026Z,3.19
2022-12-20T04:33:12.926Z,3.17
2022-12-20T04:34:14.720Z,3.18
2022-12-20T04:35:16.516Z,3.18
2022-12-20T04:36:18.343Z,3.19
2022-12-20T04:37:20.177Z,3.17
2022-12-20T04:38:21.970Z,3.19
2022-12-20T04:39:23.771Z,3.19
2022-12-20T04:40:25.570Z,3.18
2022-12-20T04:41:27.406Z,3.13
2022-12-20T04:42:29.250Z,3.11
2022-12-20T04:43:31.061Z,3.10
2022-12-20T04:44:32.858Z,3.13
2022-12-20T04:45:34.637Z,3.13
2022-12-20T04:46:36.493Z,3.16
2022-12-20T04:47:38.410Z,3.17
2022-12-20T04:48:57.306Z,3.21
2022-12-20T04:49:43.915Z,3.23
2022-12-20T04:50:45.825Z,3.25
2022-12-20T04:51:47.629Z,3.27
2022-12-20T04:52:49.456Z,3.26
2022-12-20T04:53:51.249Z,3.25
2022-12-20T04:54:53.050Z,3.24
2022-12-20T04:55:54.869Z,3.23
2022-12-20T04:56:56.661Z,3.23
2022-12-20T04:58:05.297Z,3.21
2022-12-20T04:59:02.105Z,3.21
2022-12-20T05:00:04.000Z,3.18
2022-12-20T05:01:05.807Z,3.18
2022-12-20T05:02:07.668Z,3.21
2022-12-20T05:03:09.815Z,3.21
2022-12-20T05:04:11.846Z,3.22
2022-12-20T05:05:13.596Z,3.21
2022-12-20T05:06:15.399Z,3.23
2022-12-20T05:07:17.198Z,3.24
2022-12-20T05:08:19.056Z,3.24
2022-12-20T05:09:20.867Z,3.23
2022-12-20T05:10:22.763Z,3.23
2022-12-20T05:11:24.573Z,3.22
2022-12-20T05:12:26.382Z,3.23
2022-12-20T05:13:28.229Z,3.24
2022-12-20T05:14:30.034Z,3.25
2022-12-20T05:15:31.826Z,3.25
2022-12-20T05:16:34.331Z,3.26
2022-12-20T05:17:36.142Z,3.26
2022-12-20T05:18:44.503Z,3.24
2022-12-20T05:19:42.502Z,3.26
2022-12-20T05:20:44.540Z,3.28
2022-12-20T05:21:46.341Z,3.31
2022-12-20T05:22:48.133Z,3.30
2022-12-20T05:23:49.977Z,3.31
2022-12-20T05:24:51.795Z,3.30
2022-12-20T05:25:53.596Z,3.30
2022-12-20T05:26:55.389Z,3.30
2022-12-20T05:27:57.190Z,3.31
2022-12-20T05:28:59.044Z,3.31
2022-12-20T05:30:00.855Z,3.30
2022-12-20T05:31:02.732Z,3.30
2022-12-20T05:32:04.474Z,3.31
2022-12-20T05:33:06.274Z,3.32
2022-12-20T05:34:08.138Z,3.33
2022-12-20T05:35:09.979Z,3.32
2022-12-20T05:36:11.892Z,3.34
2022-12-20T05:37:13.701Z,3.34
2022-12-20T05:38:15.549Z,3.33
2022-12-20T05:39:17.408Z,3.35
2022-12-20T05:40:19.205Z,3.34
2022-12-20T05:41:20.994Z,3.35
2022-12-20T05:42:22.864Z,3.36
2022-12-20T05:43:24.657Z,3.35
2022-12-20T05:44:26.521Z,3.36
2022-12-20T05:45:28.325Z,3.34
2022-12-20T05:46:30.319Z,3.35
2022-12-20T05:47:32.188Z,3.36
2022-12-20T05:48:34.032Z,3.36
2022-12-20T05:49:35.939Z,3.36
2022-12-20T05:50:37.806Z,3.34
2022-12-20T05:51:39.631Z,3.33
2022-12-20T05:52:41.413Z,3.31
2022-12-20T05:53:43.233Z,3.30
2022-12-20T05:54:45.112Z,3.31
2022-12-20T05:55:46.943Z,3.30
2022-12-20T05:56:48.841Z,3.30
2022-12-20T05:57:50.643Z,3.32
2022-12-20T05:58:52.462Z,3.32
2022-12-20T05:59:54.317Z,3.33
2022-12-20T06:00:56.144Z,3.31
2022-12-20T06:01:58.080Z,3.31
2022-12-20T06:03:00.217Z,3.29
2022-12-20T06:04:02.389Z,3.26
2022-12-20T06:05:04.238Z,3.25
2022-12-20T06:06:13.573Z,3.25
2022-12-20T06:07:09.878Z,3.27
2022-12-20T06:08:11.691Z,3.29
2022-12-20T06:09:13.479Z,3.30
2022-12-20T06:10:15.348Z,3.26
2022-12-20T06:11:17.150Z,3.22
2022-12-20T06:12:18.973Z,3.21
2022-12-20T06:13:20.797Z,3.19
2022-12-20T06:14:22.608Z,3.21
2022-12-20T06:15:24.462Z,3.18
2022-12-20T06:16:26.642Z,3.17
2022-12-20T06:17:28.500Z,3.17
2022-12-20T06:18:30.308Z,3.18
2022-12-20T06:19:32.116Z,3.18
2022-12-20T06:20:34.270Z,3.20
2022-12-20T06:21:36.147Z,3.19
2022-12-20T06:22:37.969Z,3.20
2022-12-20T06:23:39.763Z,3.21
2022-12-20T06:24:46.144Z,3.22
2022-12-20T06:25:45.220Z,3.22
2022-12-20T06:26:47.027Z,3.21
2022-12-20T06:27:48.837Z,3.22
2022-12-20T06:28:50.633Z,3.23
2022-12-20T06:29:52.462Z,3.26
2022-12-20T06:30:54.417Z,3.24
2022-12-20T06:31:56.313Z,3.20
2022-12-20T06:32:58.143Z,3.21
2022-12-20T06:33:59.953Z,3.22
2022-12-20T06:35:01.779Z,3.25
2022-12-20T06:36:03.642Z,3.25
2022-12-20T06:37:05.497Z,3.25
2022-12-20T06:38:07.287Z,3.24
2022-12-20T06:39:10.001Z,3.24
2022-12-20T06:40:12.364Z,3.24
2022-12-20T06:41:14.178Z,3.23
2022-12-20T06:42:16.036Z,3.24
2022-12-20T06:43:17.855Z,3.24
2022-12-20T06:44:20.064Z,3.25
2022-12-20T06:45:21.872Z,3.27
2022-12-20T06:46:23.815Z,3.28
2022-12-20T06:47:25.651Z,3.28
2022-12-20T06:48:27.499Z,3.30
2022-12-20T06:49:29.376Z,3.31
2022-12-20T06:50:31.509Z,3.32
2022-12-20T06:51:33.357Z,3.35
2022-12-20T06:52:35.304Z,3.36
2022-12-20T06:53:37.112Z,3.37
2022-12-20T06:54:38.928Z,3.37
2022-12-20T06:55:40.748Z,3.37
2022-12-20T06:56:43.120Z,3.37
2022-12-20T06:57:44.912Z,3.37
2022-12-20T06:58:46.739Z,3.36
2022-12-20T06:59:48.574Z,3.39
2022-12-20T07:00:50.567Z,3.39
2022-12-20T07:01:52.581Z,3.41
2022-12-20T07:02:54.653Z,3.42
2022-12-20T07:03:56.702Z,3.44
2022-12-20T07:04:58.547Z,3.46
2022-12-20T07:06:00.382Z,3.48
2022-12-20T07:07:02.220Z,3.49
2022-12-20T07:08:04.086Z,3.50
2022-12-20T07:09:05.910Z,3.51
2022-12-20T07:10:08.026Z,3.50
2022-12-20T07:11:09.853Z,3.50
2022-12-20T07:12:11.694Z,3.50
2022-12-20T07:13:13.511Z,3.50
2022-12-20T07:14:15.313Z,3.51
2022-12-20T07:15:17.167Z,3.51
2022-12-20T07:16:19.025Z,3.52
2022-12-20T07:17:20.924Z,3.52
2022-12-20T07:18:22.773Z,3.52
2022-12-20T07:19:24.586Z,3.52
2022-12-20T07:20:27.744Z,3.53
2022-12-20T07:21:29.540Z,3.56
2022-12-20T07:22:31.364Z,3.57
2022-12-20T07:23:34.360Z,3.58
2022-12-20T07:24:36.218Z,3.61
2022-12-20T07:25:38.043Z,3.60
2022-12-20T07:26:39.833Z,3.61
2022-12-20T07:27:41.672Z,3.62
2022-12-20T07:28:43.504Z,3.64
2022-12-20T07:29:45.325Z,3.65
2022-12-20T07:30:47.126Z,3.67
2022-12-20T07:31:49.076Z,3.68
2022-12-20T07:32:50.898Z,3.68
2022-12-20T07:33:52.727Z,3.67
2022-12-20T07:34:54.544Z,3.67
2022-12-20T07:35:56.374Z,3.68
2022-12-20T07:36:58.374Z,3.70
2022-12-20T07:38:00.231Z,3.71
2022-12-20T07:39:02.242Z,3.73
2022-12-20T07:40:04.151Z,3.74
2022-12-20T07:41:05.969Z,3.73
2022-12-20T07:42:07.774Z,3.74
2022-12-20T07:43:09.646Z,3.75
2022-12-20T07:44:11.840Z,3.75
2022-12-20T07:45:13.730Z,3.77
2022-12-20T07:46:15.700Z,3.78
2022-12-20T07:47:17.531Z,3.79
2022-12-20T07:48:21.855Z,3.81
2022-12-20T07:49:22.953Z,3.80
2022-12-20T07:50:24.864Z,3.79
2022-12-20T07:51:26.861Z,3.77
2022-12-20T07:52:28.694Z,3.77
2022-12-20T07:53:30.500Z,3.77
2022-12-20T07:54:32.356Z,3.77
2022-12-20T07:55:34.458Z,3.77
2022-12-20T07:56:41.162Z,3.77
2022-12-20T07:57:40.194Z,3.78
2022-12-20T07:58:42.064Z,3.80
2022-12-20T07:59:43.879Z,3.81
2022-12-20T08:00:45.804Z,3.84
2022-12-20T08:01:47.668Z,3.88
2022-12-20T08:02:49.655Z,3.89
2022-12-20T08:03:51.704Z,3.91
2022-12-20T08:04:53.452Z,3.92
2022-12-20T08:05:55.290Z,3.94
2022-12-20T08:06:57.050Z,3.94
2022-12-20T08:07:59.661Z,3.95
2022-12-20T08:09:01.700Z,3.94
2022-12-20T08:10:03.585Z,3.96
2022-12-20T08:11:05.400Z,3.98
2022-12-20T08:12:07.214Z,4.01
2022-12-20T08:13:08.985Z,4.02
2022-12-20T08:14:10.822Z,4.00
2022-12-20T08:15:12.626Z,3.99
2022-12-20T08:16:14.606Z,3.99
2022-12-20T08:17:16.436Z,3.99
2022-12-20T08:18:18.241Z,4.00
2022-12-20T08:19:20.096Z,4.00
2022-12-20T08:20:22.016Z,4.01
2022-12-20T08:21:23.798Z,4.03
2022-12-20T08:22:25.622Z,4.05
2022-12-20T08:23:27.435Z,4.06
2022-12-20T08:24:29.295Z,4.08
2022-12-20T08:25:35.912Z,4.11
2022-12-20T08:26:35.041Z,4.14
2022-12-20T08:27:36.853Z,4.16
2022-12-20T08:28:38.730Z,4.19
2022-12-20T08:29:40.567Z,4.19
2022-12-20T08:30:42.468Z,4.21
2022-12-20T08:31:50.058Z,4.23
2022-12-20T08:32:49.184Z,4.24
2022-12-20T08:33:50.991Z,4.23
2022-12-20T08:34:52.814Z,4.23
2022-12-20T08:35:54.612Z,4.23
2022-12-20T08:36:56.503Z,4.22
2022-12-20T08:37:58.308Z,4.21
2022-12-20T08:39:00.101Z,4.21
2022-12-20T08:40:01.977Z,4.19
2022-12-20T08:41:03.781Z,4.21
2022-12-20T08:42:05.575Z,4.23
2022-12-20T08:43:10.319Z,4.25
2022-12-20T08:44:10.986Z,4.30
2022-12-20T08:45:12.839Z,4.32
2022-12-20T08:46:14.764Z,4.34
2022-12-20T08:47:16.626Z,4.34
2022-12-20T08:48:18.412Z,4.38
2022-12-20T08:49:20.218Z,4.38
2022-12-20T08:50:22.072Z,4.38
2022-12-20T08:51:23.918Z,4.40
2022-12-20T08:52:25.795Z,4.39
2022-12-20T08:53:27.602Z,4.38
2022-12-20T08:54:29.394Z,4.36
2022-12-20T08:55:31.234Z,4.36
2022-12-20T08:56:33.199Z,4.37
2022-12-20T08:57:35.006Z,4.39
2022-12-20T08:58:36.802Z,4.38
2022-12-20T08:59:38.594Z,4.38
2022-12-20T09:00:40.528Z,4.36
2022-12-20T09:01:45.515Z,4.36
2022-12-20T09:02:47.823Z,4.36
2022-12-20T09:03:49.846Z,4.37
2022-12-20T09:04:51.780Z,4.38
2022-12-20T09:05:53.610Z,4.39
2022-12-20T09:06:55.708Z,4.42
2022-12-20T09:07:57.514Z,4.43
2022-12-20T09:08:59.300Z,4.42
2022-12-20T09:10:01.261Z,4.42
2022-12-20T09:11:03.073Z,4.42
2022-12-20T09:12:04.900Z,4.43
2022-12-20T09:13:06.737Z,4.46
2022-12-20T09:14:08.542Z,4.47
2022-12-20T09:15:10.332Z,4.47
2022-12-20T09:16:12.628Z,4.46
2022-12-20T09:17:14.446Z,4.46
2022-12-20T09:18:16.241Z,4.47
2022-12-20T09:19:18.153Z,4.49
2022-12-20T09:20:20.024Z,4.53
2022-12-20T09:21:21.869Z,4.54
2022-12-20T09:22:23.664Z,4.55
2022-12-20T09:23:25.469Z,4.55
2022-12-20T09:24:27.291Z,4.57
2022-12-20T09:25:29.078Z,4.58
2022-12-20T09:26:31.320Z,4.60
2022-12-20T09:27:33.155Z,4.59
2022-12-20T09:28:34.949Z,4.59
2022-12-20T09:29:36.755Z,4.59
2022-12-20T09:30:38.594Z,4.59
2022-12-20T09:31:40.451Z,4.59
2022-12-20T09:32:42.334Z,4.58
2022-12-20T09:33:44.131Z,4.60
2022-12-20T09:34:45.928Z,4.59
2022-12-20T09:35:47.728Z,4.60
2022-12-20T09:36:49.601Z,4.61
2022-12-20T09:37:51.402Z,4.63
2022-12-20T09:38:53.213Z,4.64
2022-12-20T09:39:55.020Z,4.66
2022-12-20T09:40:56.841Z,4.66
2022-12-20T09:41:58.705Z,4.65
2022-12-20T09:43:00.716Z,4.65
2022-12-20T09:44:02.532Z,4.66
2022-12-20T09:45:04.325Z,4.66
2022-12-20T09:46:06.322Z,4.67
2022-12-20T09:47:10.817Z,4.67
2022-12-20T09:48:11.819Z,4.69
2022-12-20T09:49:13.625Z,4.72
2022-12-20T09:50:15.566Z,4.73
2022-12-20T09:51:17.527Z,4.74
2022-12-20T09:52:19.386Z,4.76
2022-12-20T09:53:21.212Z,4.78
2022-12-20T09:54:23.000Z,4.80
2022-12-20T09:55:24.825Z,4.82
2022-12-20T09:56:26.761Z,4.83
2022-12-20T09:57:28.595Z,4.88
2022-12-20T09:58:30.480Z,4.90
2022-12-20T09:59:38.567Z,4.91
2022-12-20T10:00:35.898Z,4.93
2022-12-20T10:01:39.923Z,4.97
2022-12-20T10:03:11.157Z,4.99
2022-12-20T10:03:45.103Z,5.00
2022-12-20T10:04:47.243Z,5.03
2022-12-20T10:05:49.313Z,5.03
2022-12-20T10:06:51.374Z,5.02
2022-12-20T10:07:53.219Z,5.02
2022-12-20T10:08:55.041Z,5.01
2022-12-20T10:09:56.867Z,5.02
2022-12-20T10:10:58.683Z,5.02
2022-12-20T10:12:00.469Z,5.03
2022-12-20T10:13:02.336Z,5.03
2022-12-20T10:14:04.234Z,5.05
2022-12-20T10:15:06.050Z,5.03
2022-12-20T10:16:07.916Z,5.02
2022-12-20T10:17:09.805Z,5.02
2022-12-20T10:18:11.653Z,5.03
2022-12-20T10:19:13.470Z,5.02
2022-12-20T10:20:15.323Z,5.02
2022-12-20T10:21:17.125Z,5.04
2022-12-20T10:22:18.930Z,5.06
2022-12-20T10:23:20.799Z,5.09
2022-12-20T10:24:22.613Z,5.11
2022-12-20T10:25:24.441Z,5.13
2022-12-20T10:26:26.433Z,5.14
2022-12-20T10:27:28.270Z,5.17
2022-12-20T10:28:30.137Z,5.16
2022-12-20T10:29:31.976Z,5.16
2022-12-20T10:30:33.795Z,5.16
2022-12-20T10:31:35.773Z,5.15
2022-12-20T10:32:37.661Z,5.15
2022-12-20T10:33:39.505Z,5.16
2022-12-20T10:34:48.177Z,5.14
2022-12-20T10:35:44.999Z,5.13
2022-12-20T10:36:46.826Z,5.14
2022-12-20T10:38:06.452Z,5.15
2022-12-20T10:38:52.379Z,5.17
2022-12-20T10:39:54.197Z,5.19
2022-12-20T10:41:21.391Z,5.21
2022-12-20T10:41:59.816Z,5.21
2022-12-20T10:43:01.644Z,5.21
2022-12-20T10:44:03.550Z,5.22
2022-12-20T10:45:05.509Z,5.24
2022-12-20T10:46:07.383Z,5.26
2022-12-20T10:47:09.312Z,5.23
2022-12-20T10:48:11.201Z,5.23
2022-12-20T10:49:13.093Z,5.25
2022-12-20T10:50:15.405Z,5.23
2022-12-20T10:51:17.357Z,5.23
2022-12-20T10:52:19.164Z,5.24
2022-12-20T10:53:20.981Z,5.26
2022-12-20T10:54:22.823Z,5.28
2022-12-20T10:55:24.647Z,5.30
2022-12-20T10:56:26.463Z,5.31
2022-12-20T10:57:28.278Z,5.30
2022-12-20T10:58:30.114Z,5.30
2022-12-20T10:59:31.973Z,5.30
2022-12-20T11:00:33.899Z,5.30
2022-12-20T11:01:35.917Z,5.30
2022-12-20T11:02:41.549Z,5.29
2022-12-20T11:03:41.636Z,5.30
2022-12-20T11:04:43.647Z,5.30
2022-12-20T11:05:45.869Z,5.32
2022-12-20T11:06:47.859Z,5.35
2022-12-20T11:08:08.547Z,5.35
2022-12-20T11:08:58.947Z,5.36
2022-12-20T11:09:56.952Z,5.37
2022-12-20T11:10:58.771Z,5.39
2022-12-20T11:12:00.574Z,5.37
2022-12-20T11:13:02.372Z,5.38
2022-12-20T11:14:04.187Z,5.39
2022-12-20T11:15:06.130Z,5.43
2022-12-20T11:16:08.876Z,5.46
2022-12-20T11:17:10.658Z,5.48
2022-12-20T11:18:12.457Z,5.49
2022-12-20T11:19:14.340Z,5.50
2022-12-20T11:20:16.700Z,5.52
2022-12-20T11:21:24.338Z,5.54
2022-12-20T11:22:22.140Z,5.57
2022-12-20T11:23:23.947Z,5.60
2022-12-20T11:24:25.751Z,5.63
2022-12-20T11:25:27.599Z,5.64
2022-12-20T11:26:29.725Z,5.66
2022-12-20T11:27:31.517Z,5.67
2022-12-20T11:28:33.330Z,5.69
2022-12-20T11:29:35.140Z,5.69
2022-12-20T11:30:37.099Z,5.72
2022-12-20T11:31:39.056Z,5.75
2022-12-20T11:32:48.190Z,5.77
2022-12-20T11:33:44.514Z,5.78
2022-12-20T11:34:46.318Z,5.79
2022-12-20T11:35:48.149Z,5.79
2022-12-20T11:36:50.045Z,5.82
2022-12-20T11:37:51.848Z,5.84
2022-12-20T11:38:53.651Z,5.85
2022-12-20T11:39:55.463Z,5.86
2022-12-20T11:40:57.510Z,5.89
2022-12-20T11:41:59.319Z,5.90
2022-12-20T11:43:01.180Z,5.91
2022-12-20T11:45:09.801Z,5.94
2022-12-20T11:46:10.253Z,5.96
2022-12-20T11:47:12.115Z,5.95
2022-12-20T11:48:13.970Z,5.96
2022-12-20T11:49:15.786Z,5.97
2022-12-20T11:50:17.715Z,5.97
2022-12-20T11:51:24.502Z,6.00
2022-12-20T11:52:23.191Z,6.02
2022-12-20T11:53:25.010Z,6.03
2022-12-20T11:54:26.873Z,6.05
2022-12-20T11:55:28.674Z,6.05
2022-12-20T11:56:30.511Z,6.02
2022-12-20T11:57:48.133Z,6.07
2022-12-20T11:58:36.047Z,6.08
2022-12-20T11:59:38.738Z,6.09
2022-12-20T12:00:40.574Z,6.10
2022-12-20T12:01:42.535Z,6.09
2022-12-20T12:02:44.595Z,6.10
2022-12-20T12:03:46.534Z,6.11
2022-12-20T12:04:48.370Z,6.13
2022-12-20T12:05:50.273Z,6.15
2022-12-20T12:06:52.466Z,6.17
2022-12-20T12:07:54.262Z,6.19
2022-12-20T12:08:56.074Z,6.19
2022-12-20T12:09:57.895Z,6.21
2022-12-20T12:11:00.216Z,6.23
2022-12-20T12:12:07.765Z,6.26
2022-12-20T12:13:05.763Z,6.27
2022-12-20T12:14:07.738Z,6.30
2022-12-20T12:15:15.894Z,6.32
2022-12-20T12:16:13.226Z,6.31
2022-12-20T12:17:15.085Z,6.32
2022-12-20T12:18:16.945Z,6.33
2022-12-20T12:19:18.831Z,6.33
2022-12-20T12:20:20.932Z,6.34
2022-12-20T12:21:22.803Z,6.35
2022-12-20T12:22:24.598Z,6.37
2022-12-20T12:23:26.436Z,6.39
2022-12-20T12:24:28.232Z,6.41
2022-12-20T12:25:30.119Z,6.42
2022-12-20T12:26:32.252Z,6.43
2022-12-20T12:27:34.191Z,6.44
2022-12-20T12:28:35.987Z,6.44
2022-12-20T12:29:39.196Z,6.44
2022-12-20T12:30:41.147Z,6.44
2022-12-20T12:31:43.034Z,6.46
2022-12-20T12:32:44.909Z,6.45
2022-12-20T12:33:46.704Z,6.43
2022-12-20T12:34:48.522Z,6.44
2022-12-20T12:35:50.339Z,6.43
2022-12-20T12:36:52.443Z,6.43
2022-12-20T12:37:54.340Z,6.42
2022-12-20T12:39:01.879Z,6.39
2022-12-20T12:39:59.745Z,6.38
2022-12-20T12:41:01.561Z,6.38
2022-12-20T12:42:03.377Z,6.37
2022-12-20T12:43:05.273Z,6.37
2022-12-20T12:44:07.096Z,6.36
2022-12-20T12:45:08.929Z,6.36
2022-12-20T12:46:14.403Z,6.35
2022-12-20T12:47:14.725Z,6.34
2022-12-20T12:48:16.543Z,6.34
2022-12-20T12:49:18.434Z,6.32
2022-12-20T12:50:20.564Z,6.32
2022-12-20T12:51:22.477Z,6.31
2022-12-20T12:52:24.263Z,6.30
2022-12-20T12:53:26.112Z,6.30
2022-12-20T12:54:27.913Z,6.30
2022-12-20T12:55:29.710Z,6.29
2022-12-20T12:56:47.224Z,6.28
2022-12-20T12:57:35.224Z,6.29
2022-12-20T12:58:38.193Z,6.29
2022-12-20T12:59:40.682Z,6.29
2022-12-20T13:00:42.776Z,6.30
2022-12-20T13:01:44.730Z,6.30
2022-12-20T13:02:46.824Z,6.29
2022-12-20T13:03:48.864Z,6.31
2022-12-20T13:04:50.736Z,6.30
2022-12-20T13:05:52.548Z,6.30
2022-12-20T13:06:54.456Z,6.29
2022-12-20T13:07:56.273Z,6.28
2022-12-20T13:08:58.104Z,6.27
2022-12-20T13:09:59.918Z,6.27
2022-12-20T13:11:01.746Z,6.26
2022-12-20T13:12:09.934Z,6.24
2022-12-20T13:13:07.147Z,6.25
2022-12-20T13:14:08.996Z,6.25
2022-12-20T13:15:10.789Z,6.24
2022-12-20T13:16:12.793Z,6.25
2022-12-20T13:17:19.371Z,6.24
2022-12-20T13:18:18.278Z,6.24
2022-12-20T13:19:20.175Z,6.23
2022-12-20T13:20:22.077Z,6.23
2022-12-20T13:21:23.921Z,6.21
2022-12-20T13:22:25.796Z,6.21
2022-12-20T13:23:27.573Z,6.20
2022-12-20T13:24:29.538Z,6.20
2022-12-20T13:25:31.373Z,6.20
2022-12-20T13:26:33.255Z,6.21
2022-12-20T13:27:35.121Z,6.21
2022-12-20T13:28:36.980Z,6.21
2022-12-20T13:29:38.849Z,6.20
2022-12-20T13:30:40.947Z,6.19
2022-12-20T13:31:45.442Z,6.17
2022-12-20T13:32:47.392Z,6.17
2022-12-20T13:33:49.177Z,6.16
2022-12-20T13:34:51.030Z,6.16
2022-12-20T13:35:52.906Z,6.14
2022-12-20T13:36:55.218Z,6.13
2022-12-20T13:37:57.020Z,6.13
2022-12-20T13:38:58.831Z,6.13
2022-12-20T13:40:00.676Z,6.12
2022-12-20T13:41:02.486Z,6.12
2022-12-20T13:42:04.271Z,6.12
2022-12-20T13:43:06.078Z,6.11
2022-12-20T13:44:07.879Z,6.11
2022-12-20T13:45:09.733Z,6.11
2022-12-20T13:46:11.601Z,6.09